createdAt,value
2019-05-03T00:05:52.378Z,9.30
2019-05-03T00:08:45.290Z,9.30
2019-05-03T00:11:30.312Z,9.30
2019-05-03T00:14:15.662Z,9.30
2019-05-03T00:17:02.166Z,9.20
2019-05-03T00:19:47.903Z,9.10
2019-05-03T00:22:21.693Z,9.10
2019-05-03T00:25:33.854Z,9.10
2019-05-03T00:28:19.264Z,9.10
2019-05-03T00:31:04.035Z,9.10
2019-05-03T00:33:52.102Z,9.10
2019-05-03T00:42:45.095Z,8.90
2019-05-03T00:45:31.492Z,8.90
2019-05-03T00:48:16.595Z,8.90
2019-05-03T00:51:02.445Z,8.80
2019-05-03T00:53:48.168Z,8.80
2019-05-03T00:56:32.966Z,8.90
2019-05-03T00:59:17.962Z,8.90
2019-05-03T01:02:03.345Z,8.80
2019-05-03T01:04:48.433Z,8.80
2019-05-03T01:07:33.155Z,8.80
2019-05-03T01:10:18.039Z,8.80
2019-05-03T01:13:03.572Z,8.70
2019-05-03T01:18:55.370Z,8.80
2019-05-03T01:21:42.264Z,8.60
2019-05-03T01:24:27.929Z,8.60
2019-05-03T01:27:12.578Z,8.60
2019-05-03T01:33:02.812Z,8.30
2019-05-03T01:35:47.931Z,8.30
2019-05-03T01:38:33.086Z,8.40
2019-05-03T01:41:17.374Z,8.50
2019-05-03T01:44:02.493Z,8.30
2019-05-03T01:46:48.993Z,8.20
2019-05-03T01:49:53.486Z,8.20
2019-05-03T01:52:41.843Z,8.30
2019-05-03T01:55:46.655Z,8.40
2019-05-03T01:58:32.388Z,8.50
2019-05-03T02:01:37.232Z,8.20
2019-05-03T02:04:28.892Z,8.10
2019-05-03T02:07:13.823Z,8.30
2019-05-03T02:09:59.129Z,8.20
2019-05-03T02:12:43.886Z,8.20
2019-05-03T02:18:32.459Z,8.10
2019-05-03T02:21:17.412Z,8.20
2019-05-03T02:24:02.652Z,8.10
2019-05-03T02:26:47.023Z,8.00
2019-05-03T02:29:32.683Z,8.00
2019-05-03T02:32:17.047Z,7.90
2019-05-03T02:35:02.799Z,7.90
2019-05-03T02:37:53.156Z,7.90
2019-05-03T02:40:38.294Z,7.90
2019-05-03T02:43:28.180Z,7.80
2019-05-03T02:52:41.526Z,7.80
2019-05-03T02:55:26.602Z,7.90
2019-05-03T02:58:11.396Z,7.70
2019-05-03T03:00:56.434Z,7.70
2019-05-03T03:03:41.669Z,7.70
2019-05-03T03:06:26.921Z,7.70
2019-05-03T03:09:11.449Z,7.70
2019-05-03T03:17:45.560Z,7.60
2019-05-03T03:20:29.827Z,7.40
2019-05-03T03:23:17.942Z,7.40
2019-05-03T03:26:01.937Z,7.20
2019-05-03T03:28:46.686Z,7.20
2019-05-03T03:31:32.155Z,7.20
2019-05-03T03:34:18.250Z,7.10
2019-05-03T03:37:06.496Z,7.10
2019-05-03T03:39:56.228Z,7.10
2019-05-03T03:42:41.359Z,7.10
2019-05-03T03:45:26.614Z,7.00
2019-05-03T03:48:11.511Z,7.00
2019-05-03T03:50:56.434Z,7.10
2019-05-03T03:53:41.536Z,7.00
2019-05-03T03:56:26.620Z,7.00
2019-05-03T03:59:11.622Z,7.00
2019-05-03T04:01:56.271Z,6.90
2019-05-03T04:04:41.370Z,7.00
2019-05-03T04:07:26.833Z,6.90
2019-05-03T04:10:11.743Z,6.80
2019-05-03T04:12:56.973Z,6.80
2019-05-03T04:16:01.425Z,6.80
2019-05-03T04:22:09.510Z,6.70
2019-05-03T04:24:55.236Z,6.70
2019-05-03T04:27:40.236Z,6.70
2019-05-03T04:30:25.899Z,6.70
2019-05-03T04:33:10.434Z,6.60
2019-05-03T04:35:55.956Z,6.70
2019-05-03T04:38:40.876Z,6.70
2019-05-03T04:41:26.816Z,6.70
2019-05-03T04:44:15.302Z,6.70
2019-05-03T04:46:59.389Z,6.90
2019-05-03T04:49:46.306Z,6.70
2019-05-03T04:52:30.903Z,6.70
2019-05-03T04:55:16.390Z,6.80
2019-05-03T04:58:01.019Z,6.70
2019-05-03T05:00:46.624Z,6.70
2019-05-03T05:03:31.569Z,6.70
2019-05-03T05:06:17.029Z,6.80
2019-05-03T05:09:01.490Z,6.70
2019-05-03T05:11:46.745Z,6.70
2019-05-03T05:14:31.684Z,6.70
2019-05-03T05:20:55.935Z,6.60
2019-05-03T05:33:03.127Z,6.80
2019-05-03T05:35:47.946Z,6.80
2019-05-03T05:38:34.645Z,6.80
2019-05-03T05:41:19.714Z,6.90
2019-05-03T05:44:05.452Z,7.00
2019-05-03T05:47:10.416Z,6.90
2019-05-03T05:50:20.719Z,7.00
2019-05-03T05:53:05.962Z,7.00
2019-05-03T05:59:09.233Z,7.10
2019-05-03T06:05:00.279Z,7.30
2019-05-03T06:14:19.187Z,7.20
2019-05-03T06:17:05.627Z,7.40
2019-05-03T06:20:10.566Z,7.60
2019-05-03T06:22:48.862Z,7.60
2019-05-03T06:28:54.488Z,7.50
2019-05-03T06:31:46.192Z,7.70
2019-05-03T06:34:31.231Z,8.00
2019-05-03T06:37:18.468Z,7.80
2019-05-03T06:40:06.004Z,7.80
2019-05-03T06:42:54.480Z,7.80
2019-05-03T06:45:41.176Z,8.00
2019-05-03T06:48:28.026Z,8.00
2019-05-03T06:51:14.728Z,8.10
2019-05-03T06:53:58.127Z,8.10
2019-05-03T06:56:42.807Z,8.20
2019-05-03T07:02:51.843Z,8.10
2019-05-03T07:05:56.206Z,7.90
2019-05-03T07:11:46.052Z,8.10
2019-05-03T07:14:31.133Z,8.20
2019-05-03T07:17:16.111Z,8.20
2019-05-03T07:20:00.846Z,8.40
2019-05-03T07:22:45.775Z,8.40
2019-05-03T07:25:31.086Z,8.30
2019-05-03T07:28:15.971Z,8.30
2019-05-03T07:31:00.779Z,8.40
2019-05-03T07:33:45.953Z,8.50
2019-05-03T07:36:30.819Z,8.50
2019-05-03T07:39:15.827Z,8.50
2019-05-03T07:42:01.162Z,8.40
2019-05-03T07:44:45.974Z,8.70
2019-05-03T07:47:30.936Z,8.60
2019-05-03T07:50:16.300Z,8.70
2019-05-03T07:53:01.731Z,8.60
2019-05-03T07:56:09.173Z,8.70
2019-05-03T07:59:02.589Z,8.80
2019-05-03T08:01:46.434Z,9.00
2019-05-03T08:04:30.787Z,8.90
2019-05-03T08:07:22.401Z,8.80
2019-05-03T08:10:05.031Z,8.70
2019-05-03T08:12:48.910Z,8.70
2019-05-03T08:15:34.820Z,8.80
2019-05-03T08:18:20.167Z,9.30
2019-05-03T08:21:05.728Z,9.30
2019-05-03T08:23:51.043Z,9.20
2019-05-03T08:26:36.063Z,9.10
2019-05-03T08:29:21.253Z,9.00
2019-05-03T08:32:25.668Z,8.90
2019-05-03T08:35:15.332Z,8.90
2019-05-03T08:38:01.090Z,9.10
2019-05-03T08:40:47.620Z,9.30
2019-05-03T08:43:32.296Z,9.50
2019-05-03T08:46:17.701Z,9.40
2019-05-03T08:49:05.020Z,9.30
2019-05-03T08:51:50.063Z,9.20
2019-05-03T08:54:34.992Z,9.40
2019-05-03T08:57:19.920Z,9.30
2019-05-03T09:00:07.967Z,9.30
2019-05-03T09:02:52.267Z,9.40
2019-05-03T09:05:37.219Z,9.30
2019-05-03T09:08:24.704Z,9.30
2019-05-03T09:11:11.533Z,9.20
2019-05-03T09:13:58.914Z,9.40
2019-05-03T09:16:44.756Z,9.50
2019-05-03T09:19:29.900Z,9.60
2019-05-03T09:22:14.803Z,9.80
2019-05-03T09:24:59.704Z,9.70
2019-05-03T09:27:44.859Z,9.70
2019-05-03T09:30:29.764Z,9.60
2019-05-03T09:33:15.344Z,9.60
2019-05-03T09:36:00.510Z,9.90
2019-05-03T09:38:45.913Z,9.90
2019-05-03T09:41:30.732Z,10.10
2019-05-03T09:44:15.728Z,10.10
2019-05-03T09:47:02.599Z,10.30
2019-05-03T09:49:47.616Z,10.20
2019-05-03T09:52:35.365Z,10.50
2019-05-03T09:58:28.239Z,9.90
2019-05-03T10:01:15.081Z,10.00
2019-05-03T10:04:00.457Z,10.30
2019-05-03T10:06:45.387Z,10.60
2019-05-03T10:09:30.367Z,10.60
2019-05-03T10:12:19.041Z,10.80
2019-05-03T10:15:06.373Z,11.00
2019-05-03T10:17:57.023Z,11.30
2019-05-03T10:20:28.795Z,10.90
2019-05-03T10:23:39.959Z,10.90
2019-05-03T10:26:11.723Z,10.70
2019-05-03T10:28:56.165Z,10.30
2019-05-03T10:38:03.004Z,10.80
2019-05-03T10:40:47.697Z,11.40
2019-05-03T10:43:32.811Z,11.10
2019-05-03T10:46:17.908Z,10.90
2019-05-03T10:49:02.675Z,11.10
2019-05-03T10:51:54.859Z,10.90
2019-05-03T10:54:46.008Z,10.70
2019-05-03T10:57:35.518Z,10.60
2019-05-03T11:00:42.586Z,10.60
2019-05-03T11:03:09.415Z,11.00
2019-05-03T11:05:54.815Z,11.50
2019-05-03T11:08:39.827Z,11.20
2019-05-03T11:11:25.916Z,11.20
2019-05-03T11:14:10.845Z,10.90
2019-05-03T11:16:55.994Z,10.80
2019-05-03T11:19:40.268Z,10.80
2019-05-03T11:22:25.410Z,11.00
2019-05-03T11:25:10.537Z,11.20
2019-05-03T11:27:56.136Z,11.20
2019-05-03T11:30:52.288Z,11.40
2019-05-03T11:39:28.286Z,10.80
2019-05-03T11:42:15.168Z,10.70
2019-05-03T11:44:59.851Z,10.60
2019-05-03T11:47:45.690Z,10.50
2019-05-03T11:50:30.769Z,10.70
2019-05-03T11:53:15.993Z,10.80
2019-05-03T11:56:00.731Z,10.80
2019-05-03T11:58:46.156Z,10.90
2019-05-03T12:04:37.722Z,11.00
2019-05-03T12:07:38.922Z,10.90
2019-05-03T12:10:36.159Z,10.90
2019-05-03T12:17:10.697Z,10.90
2019-05-03T12:19:29.767Z,11.50
2019-05-03T12:22:09.935Z,11.70
2019-05-03T12:24:56.057Z,12.00
2019-05-03T12:27:41.600Z,11.90
2019-05-03T12:30:27.811Z,12.20
2019-05-03T12:33:15.287Z,12.10
2019-05-03T12:35:59.318Z,12.10
2019-05-03T12:38:44.477Z,11.70
2019-05-03T12:41:29.216Z,12.20
2019-05-03T12:44:15.274Z,12.20
2019-05-03T12:47:02.547Z,12.40
2019-05-03T12:49:47.523Z,12.30
2019-05-03T12:52:35.267Z,12.10
2019-05-03T12:55:19.745Z,11.60
2019-05-03T12:58:06.408Z,11.20
2019-05-03T13:01:10.675Z,11.10
2019-05-03T13:04:03.183Z,11.10
2019-05-03T13:06:54.977Z,11.10
2019-05-03T13:09:47.573Z,11.10
2019-05-03T13:12:34.667Z,10.80
2019-05-03T13:15:19.879Z,10.80
2019-05-03T13:18:05.042Z,11.00
2019-05-03T13:20:50.089Z,11.10
2019-05-03T13:23:21.844Z,11.20
2019-05-03T13:26:07.152Z,11.20
2019-05-03T13:28:52.041Z,11.30
2019-05-03T13:31:37.291Z,11.10
2019-05-03T13:34:22.204Z,11.00
2019-05-03T13:37:07.373Z,11.10
2019-05-03T13:39:52.485Z,11.00
2019-05-03T13:42:37.475Z,11.20
2019-05-03T13:45:24.596Z,11.20
2019-05-03T13:48:09.554Z,10.90
2019-05-03T13:50:55.240Z,10.90
2019-05-03T13:53:39.798Z,10.90
2019-05-03T13:56:25.125Z,10.90
2019-05-03T13:59:18.929Z,10.80
2019-05-03T14:02:11.462Z,10.90
2019-05-03T14:04:52.455Z,10.90
2019-05-03T14:07:31.174Z,11.00
2019-05-03T14:10:16.241Z,11.20
2019-05-03T14:13:01.683Z,11.60
2019-05-03T14:15:46.428Z,12.00
2019-05-03T14:18:31.633Z,11.80
2019-05-03T14:21:21.710Z,11.40
2019-05-03T14:24:10.769Z,11.50
2019-05-03T14:26:56.059Z,11.50
2019-05-03T14:29:41.292Z,11.20
2019-05-03T14:32:28.921Z,11.20
2019-05-03T14:35:15.895Z,11.10
2019-05-03T14:37:59.420Z,11.10
2019-05-03T14:40:44.878Z,10.80
2019-05-03T14:43:31.346Z,10.70
2019-05-03T14:46:29.344Z,10.70
2019-05-03T14:49:05.345Z,10.70
2019-05-03T14:51:50.379Z,10.60
2019-05-03T14:54:37.416Z,10.50
2019-05-03T14:57:29.671Z,10.50
2019-05-03T15:00:37.469Z,10.40
2019-05-03T15:03:24.860Z,10.20
2019-05-03T15:06:10.165Z,10.30
2019-05-03T15:08:54.871Z,10.40
2019-05-03T15:11:40.411Z,10.30
2019-05-03T15:14:25.205Z,10.50
2019-05-03T15:17:10.163Z,10.40
2019-05-03T15:19:55.576Z,10.40
2019-05-03T15:22:40.756Z,10.20
2019-05-03T15:25:25.941Z,10.30
2019-05-03T15:28:10.778Z,10.30
2019-05-03T15:30:55.671Z,10.20
2019-05-03T15:33:41.098Z,10.20
2019-05-03T15:36:26.052Z,10.10
2019-05-03T15:39:11.011Z,10.10
2019-05-03T15:41:56.254Z,10.20
2019-05-03T15:45:00.881Z,10.20
2019-05-03T15:48:05.345Z,10.10
2019-05-03T15:50:50.876Z,10.00
2019-05-03T15:53:35.949Z,10.10
2019-05-03T15:56:21.128Z,10.00
2019-05-03T15:59:06.220Z,10.10
2019-05-03T16:01:38.027Z,10.20
2019-05-03T16:04:24.942Z,10.10
2019-05-03T16:07:10.245Z,10.10
2019-05-03T16:09:55.578Z,10.10
2019-05-03T16:12:40.633Z,10.20
2019-05-03T16:15:25.660Z,10.30
2019-05-03T16:18:10.627Z,10.10
2019-05-03T16:20:55.646Z,10.10
2019-05-03T16:23:40.906Z,10.30
2019-05-03T16:26:25.807Z,10.30
2019-05-03T16:29:12.375Z,10.40
2019-05-03T16:31:56.900Z,10.30
2019-05-03T16:34:44.386Z,10.30
2019-05-03T16:37:29.256Z,10.30
2019-05-03T16:40:16.667Z,10.30
2019-05-03T16:43:01.475Z,10.40
2019-05-03T16:45:46.223Z,10.50
2019-05-03T16:48:31.175Z,10.70
2019-05-03T16:51:17.307Z,10.80
2019-05-03T16:54:02.544Z,10.80
2019-05-03T16:56:47.687Z,10.80
2019-05-03T16:59:36.007Z,10.80
2019-05-03T17:02:21.124Z,10.90
2019-05-03T17:11:17.467Z,10.40
2019-05-03T17:14:02.483Z,10.40
2019-05-03T17:16:47.404Z,10.30
2019-05-03T17:19:32.459Z,10.30
2019-05-03T17:22:17.619Z,10.30
2019-05-03T17:25:04.332Z,10.20
2019-05-03T17:27:50.321Z,10.30
2019-05-03T17:30:37.347Z,10.20
2019-05-03T17:33:22.011Z,10.20
2019-05-03T17:36:06.771Z,10.30
2019-05-03T17:38:55.112Z,10.40
2019-05-03T17:44:47.311Z,10.20
2019-05-03T17:47:32.280Z,10.10
2019-05-03T17:50:17.029Z,10.10
2019-05-03T17:56:17.808Z,10.20
2019-05-03T17:59:24.795Z,10.10
2019-05-03T18:02:29.587Z,10.10
2019-05-03T18:05:25.081Z,10.10
2019-05-03T18:11:34.573Z,10.10
2019-05-03T18:14:25.745Z,10.20
2019-05-03T18:17:10.527Z,10.20
2019-05-03T18:19:55.866Z,10.10
2019-05-03T18:22:40.856Z,9.90
2019-05-03T18:25:25.675Z,9.90
2019-05-03T18:28:10.637Z,9.70
2019-05-03T18:30:55.718Z,9.80
2019-05-03T18:33:40.931Z,9.90
2019-05-03T18:36:26.196Z,9.90
2019-05-03T18:39:11.203Z,9.90
2019-05-03T18:41:55.923Z,9.90
2019-05-03T18:44:48.159Z,9.90
2019-05-03T18:47:34.422Z,9.90
2019-05-03T18:50:19.239Z,9.80
2019-05-03T18:53:04.737Z,9.90
2019-05-03T18:55:49.223Z,9.90
2019-05-03T18:58:34.400Z,9.90
2019-05-03T19:01:19.735Z,9.80
2019-05-03T19:10:22.131Z,9.90
2019-05-03T19:12:58.158Z,9.80
2019-05-03T19:15:43.136Z,9.80
2019-05-03T19:18:29.582Z,9.80
2019-05-03T19:21:15.089Z,9.70
2019-05-03T19:24:00.070Z,9.70
2019-05-03T19:26:45.203Z,9.70
2019-05-03T19:29:31.597Z,9.70
2019-05-03T19:32:16.953Z,9.70
2019-05-03T19:35:01.426Z,9.60
2019-05-03T19:37:46.732Z,9.70
2019-05-03T19:40:31.610Z,9.60
2019-05-03T19:43:16.425Z,9.60
2019-05-03T19:46:01.462Z,9.70
2019-05-03T19:48:46.489Z,9.60
2019-05-03T19:51:31.930Z,9.70
2019-05-03T19:54:17.270Z,9.60
2019-05-03T19:57:04.864Z,9.50
2019-05-03T19:59:50.623Z,9.50
2019-05-03T20:02:54.918Z,9.50
2019-05-03T20:11:42.498Z,9.40
2019-05-03T20:14:26.771Z,9.40
2019-05-03T20:17:11.771Z,9.40
2019-05-03T20:19:57.011Z,9.40
2019-05-03T20:22:41.994Z,9.40
2019-05-03T20:25:27.219Z,9.40
2019-05-03T20:28:15.395Z,9.50
2019-05-03T20:31:02.454Z,9.50
2019-05-03T20:33:47.272Z,9.50
2019-05-03T20:36:32.419Z,9.50
2019-05-03T20:39:17.517Z,9.40
2019-05-03T20:42:04.525Z,9.40
2019-05-03T20:44:55.316Z,9.30
2019-05-03T20:47:47.803Z,9.30
2019-05-03T20:50:32.990Z,9.30
2019-05-03T20:53:18.084Z,9.30
2019-05-03T20:56:05.100Z,9.30
2019-05-03T20:58:50.583Z,9.20
2019-05-03T21:01:35.779Z,9.20
2019-05-03T21:04:20.668Z,9.20
2019-05-03T21:07:05.635Z,9.20
2019-05-03T21:09:50.713Z,9.10
2019-05-03T21:12:35.725Z,9.10
2019-05-03T21:25:00.048Z,9.10
2019-05-03T21:27:45.255Z,9.10
2019-05-03T21:30:32.812Z,9.10
2019-05-03T21:33:17.323Z,9.00
2019-05-03T21:36:04.481Z,9.00
2019-05-03T21:38:49.370Z,9.00
2019-05-03T21:41:35.252Z,9.00
2019-05-03T21:44:41.490Z,9.10
2019-05-03T21:50:35.934Z,8.90
2019-05-03T21:53:09.028Z,8.90
2019-05-03T21:55:54.283Z,8.90
2019-05-03T21:58:39.295Z,8.90
2019-05-03T22:01:25.888Z,9.00
2019-05-03T22:04:11.586Z,9.00
2019-05-03T22:06:56.443Z,9.00
2019-05-03T22:09:41.289Z,9.10
2019-05-03T22:12:26.351Z,9.10
2019-05-03T22:18:24.718Z,9.10
2019-05-03T22:21:36.977Z,9.10
2019-05-03T22:24:42.190Z,9.00
2019-05-03T22:27:31.042Z,9.00
2019-05-03T22:30:16.215Z,8.90
2019-05-03T22:33:01.306Z,9.00
2019-05-03T22:35:46.442Z,9.00
2019-05-03T22:49:29.121Z,9.00
2019-05-03T22:52:15.397Z,8.80
2019-05-03T22:55:00.436Z,8.80
2019-05-03T22:57:45.490Z,8.70
2019-05-03T23:00:30.796Z,8.70
2019-05-03T23:03:15.799Z,8.60
2019-05-03T23:06:00.663Z,8.70
2019-05-03T23:08:45.900Z,8.60
2019-05-03T23:11:30.591Z,8.60
2019-05-03T23:14:15.339Z,8.60
2019-05-03T23:17:00.464Z,8.60
2019-05-03T23:19:48.383Z,8.60
2019-05-03T23:22:35.152Z,8.60
2019-05-03T23:25:20.239Z,8.60
2019-05-03T23:28:05.754Z,8.70
2019-05-03T23:30:50.250Z,8.60
2019-05-03T23:33:35.658Z,8.60
2019-05-03T23:36:32.476Z,8.40
2019-05-03T23:39:08.072Z,8.40
2019-05-03T23:41:52.671Z,8.40
2019-05-03T23:44:37.443Z,8.40
2019-05-03T23:50:29.747Z,8.40
2019-05-03T23:53:15.421Z,8.40
2019-05-03T23:56:06.145Z,8.30
2019-05-03T23:58:51.288Z,8.30
